createdAt,value
2018-08-09T00:01:03.577Z,97978.02
2018-08-09T00:03:33.329Z,97976.23
2018-08-09T00:06:02.126Z,97980.88
2018-08-09T00:08:31.400Z,97977.23
2018-08-09T00:11:00.682Z,97981.12
2018-08-09T00:13:30.277Z,97976.52
2018-08-09T00:15:59.989Z,97971.30
2018-08-09T00:18:29.210Z,97965.06
2018-08-09T00:20:58.335Z,97960.38
2018-08-09T00:23:27.492Z,97959.87
2018-08-09T00:25:56.641Z,97951.29
2018-08-09T00:28:25.799Z,97952.33
2018-08-09T00:30:54.898Z,97950.97
2018-08-09T00:33:24.050Z,97950.22
2018-08-09T00:35:53.206Z,97947.88
2018-08-09T00:38:22.385Z,97945.31
2018-08-09T00:40:51.505Z,97945.08
2018-08-09T00:43:20.618Z,97944.34
2018-08-09T00:45:49.760Z,97936.58
2018-08-09T00:48:19.325Z,97935.53
2018-08-09T00:50:48.446Z,97932.94
2018-08-09T00:53:17.590Z,97935.80
2018-08-09T00:55:46.846Z,97940.20
2018-08-09T00:58:16.062Z,97938.66
2018-08-09T01:00:44.737Z,97936.58
2018-08-09T01:03:13.857Z,97939.17
2018-08-09T01:05:42.981Z,97938.19
2018-08-09T01:08:12.106Z,97940.26
2018-08-09T01:10:41.221Z,97935.09
2018-08-09T01:13:12.796Z,97933.52
2018-08-09T01:15:41.916Z,97933.27
2018-08-09T01:18:11.773Z,97927.81
2018-08-09T01:20:40.916Z,97935.81
2018-08-09T01:23:10.026Z,97929.59
2018-08-09T01:25:39.134Z,97925.95
2018-08-09T01:28:08.273Z,97927.20
2018-08-09T01:30:38.085Z,97927.20
2018-08-09T01:33:07.390Z,97922.81
2018-08-09T01:35:36.495Z,97923.38
2018-08-09T01:38:05.629Z,97919.47
2018-08-09T01:40:34.790Z,97917.16
2018-08-09T01:43:20.838Z,97921.58
2018-08-09T01:45:50.002Z,97918.48
2018-08-09T01:48:20.577Z,97922.09
2018-08-09T01:50:49.708Z,97917.95
2018-08-09T01:53:18.842Z,97917.67
2018-08-09T01:55:48.046Z,97912.77
2018-08-09T01:58:19.481Z,97912.75
2018-08-09T02:00:49.512Z,97911.17
2018-08-09T02:03:18.773Z,97911.42
2018-08-09T02:05:47.830Z,97913.73
2018-08-09T02:08:17.435Z,97913.20
2018-08-09T02:10:46.594Z,97906.75
2018-08-09T02:13:15.734Z,97904.70
2018-08-09T02:15:45.361Z,97902.88
2018-08-09T02:18:17.118Z,97896.66
2018-08-09T02:20:46.250Z,97893.00
2018-08-09T02:23:15.358Z,97889.86
2018-08-09T02:25:44.481Z,97890.16
2018-08-09T02:28:13.757Z,97885.97
2018-08-09T02:30:42.882Z,97880.70
2018-08-09T02:33:11.995Z,97870.82
2018-08-09T02:35:41.136Z,97868.27
2018-08-09T02:38:10.266Z,97866.19
2018-08-09T02:40:39.474Z,97860.98
2018-08-09T02:43:08.614Z,97859.41
2018-08-09T02:45:37.731Z,97857.50
2018-08-09T02:48:07.228Z,97853.80
2018-08-09T02:50:36.478Z,97850.13
2018-08-09T02:53:05.806Z,97857.06
2018-08-09T02:55:34.906Z,97855.30
2018-08-09T02:58:04.110Z,97859.42
2018-08-09T03:00:33.382Z,97869.41
2018-08-09T03:03:02.730Z,97865.19
2018-08-09T03:05:32.850Z,97863.53
2018-08-09T03:08:01.982Z,97862.74
2018-08-09T03:10:31.109Z,97859.39
2018-08-09T03:13:00.264Z,97863.73
2018-08-09T03:15:29.354Z,97865.80
2018-08-09T03:17:58.486Z,97867.29
2018-08-09T03:20:27.774Z,97879.37
2018-08-09T03:22:57.169Z,97879.78
2018-08-09T03:25:26.386Z,97869.97
2018-08-09T03:27:55.926Z,97871.11
2018-08-09T03:30:25.162Z,97869.47
2018-08-09T03:32:54.818Z,97864.52
2018-08-09T03:35:23.489Z,97860.16
2018-08-09T03:37:52.641Z,97867.66
2018-08-09T03:40:21.753Z,97872.25
2018-08-09T03:42:51.255Z,97874.94
2018-08-09T03:45:20.369Z,97868.46
2018-08-09T03:47:49.493Z,97866.58
2018-08-09T03:50:18.605Z,97871.25
2018-08-09T03:52:47.701Z,97870.29
2018-08-09T03:55:16.852Z,97867.20
2018-08-09T03:57:46.035Z,97866.32
2018-08-09T04:00:15.981Z,97873.29
2018-08-09T04:02:45.741Z,97875.30
2018-08-09T04:05:15.029Z,97877.52
2018-08-09T04:07:44.161Z,97882.96
2018-08-09T04:10:13.262Z,97878.30
2018-08-09T04:12:42.366Z,97879.89
2018-08-09T04:15:13.206Z,97875.63
2018-08-09T04:17:42.301Z,97877.73
2018-08-09T04:20:11.426Z,97877.73
2018-08-09T04:22:40.549Z,97877.22
2018-08-09T04:25:09.660Z,97880.14
2018-08-09T04:27:38.845Z,97871.88
2018-08-09T04:30:07.940Z,97879.20
2018-08-09T04:32:37.053Z,97881.84
2018-08-09T04:35:06.381Z,97882.72
2018-08-09T04:37:35.471Z,97883.34
2018-08-09T04:40:04.674Z,97887.34
2018-08-09T04:42:33.785Z,97885.34
2018-08-09T04:45:03.517Z,97890.77
2018-08-09T04:47:32.665Z,97894.63
2018-08-09T04:50:01.772Z,97894.41
2018-08-09T04:52:30.865Z,97893.45
2018-08-09T04:54:59.953Z,97890.37
2018-08-09T04:57:29.178Z,97889.06
2018-08-09T04:59:58.469Z,97892.53
2018-08-09T05:02:28.194Z,97895.63
2018-08-09T05:04:57.577Z,97901.09
2018-08-09T05:07:26.997Z,97900.59
2018-08-09T05:09:58.829Z,97908.42
2018-08-09T05:12:27.989Z,97908.67
2018-08-09T05:14:57.133Z,97912.05
2018-08-09T05:17:26.233Z,97912.81
2018-08-09T05:19:55.333Z,97918.00
2018-08-09T05:22:24.754Z,97922.66
2018-08-09T05:24:53.865Z,97912.83
2018-08-09T05:27:22.969Z,97915.37
2018-08-09T05:29:52.071Z,97911.47
2018-08-09T05:32:21.194Z,97910.67
2018-08-09T05:34:50.386Z,97908.30
2018-08-09T05:37:19.497Z,97909.28
2018-08-09T05:39:48.637Z,97907.05
2018-08-09T05:42:17.881Z,97910.98
2018-08-09T05:44:47.046Z,97910.13
2018-08-09T05:47:16.583Z,97907.64
2018-08-09T05:49:45.909Z,97901.86
2018-08-09T05:52:15.813Z,97900.77
2018-08-09T05:54:45.165Z,97900.23
2018-08-09T05:57:15.613Z,97898.94
2018-08-09T05:59:44.700Z,97905.70
2018-08-09T06:02:13.822Z,97907.28
2018-08-09T06:04:43.221Z,97895.50
2018-08-09T06:07:12.481Z,97898.66
2018-08-09T06:09:41.753Z,97896.90
2018-08-09T06:12:11.142Z,97909.78
2018-08-09T06:14:39.349Z,97909.70
2018-08-09T06:17:09.337Z,97908.41
2018-08-09T06:19:38.022Z,97904.11
2018-08-09T06:22:07.949Z,97901.73
2018-08-09T06:24:37.085Z,97895.17
2018-08-09T06:27:06.402Z,97894.27
2018-08-09T06:29:35.168Z,97894.06
2018-08-09T06:32:04.486Z,97898.73
2018-08-09T06:34:33.707Z,97892.99
2018-08-09T06:37:02.925Z,97895.00
2018-08-09T06:39:32.542Z,97896.73
2018-08-09T06:42:02.174Z,97886.78
2018-08-09T06:44:31.559Z,97879.56
2018-08-09T06:47:01.016Z,97878.62
2018-08-09T06:49:30.166Z,97876.75
2018-08-09T06:51:59.318Z,97878.42
2018-08-09T06:54:28.463Z,97880.45
2018-08-09T06:56:58.151Z,97873.73
2018-08-09T06:59:27.653Z,97868.15
2018-08-09T07:01:56.782Z,97872.52
2018-08-09T07:04:26.058Z,97858.73
2018-08-09T07:06:55.211Z,97854.92
2018-08-09T07:09:24.546Z,97855.12
2018-08-09T07:11:54.366Z,97854.16
2018-08-09T07:14:24.245Z,97852.39
2018-08-09T07:16:54.085Z,97850.06
2018-08-09T07:19:22.804Z,97847.27
2018-08-09T07:21:52.326Z,97839.64
2018-08-09T07:24:22.346Z,97830.53
2018-08-09T07:26:51.473Z,97830.84
2018-08-09T07:29:20.614Z,97821.02
2018-08-09T07:31:50.258Z,97816.89
2018-08-09T07:34:19.370Z,97821.95
2018-08-09T07:36:49.133Z,97820.55
2018-08-09T07:39:18.000Z,97816.12
2018-08-09T07:41:47.578Z,97804.81
2018-08-09T07:44:17.436Z,97802.66
2018-08-09T07:46:47.091Z,97801.01
2018-08-09T07:49:16.409Z,97795.63
2018-08-09T07:51:46.365Z,97782.54
2018-08-09T07:54:15.624Z,97780.91
2018-08-09T07:56:47.717Z,97777.95
2018-08-09T07:59:19.933Z,97773.17
2018-08-09T08:01:49.166Z,97769.07
2018-08-09T08:04:19.157Z,97762.89
2018-08-09T08:06:48.397Z,97769.63
2018-08-09T08:09:17.677Z,97771.59
2018-08-09T08:11:47.258Z,97777.20
2018-08-09T08:14:17.682Z,97785.07
2018-08-09T08:16:46.994Z,97775.42
2018-08-09T08:19:16.102Z,97774.69
2018-08-09T08:21:45.264Z,97777.34
2018-08-09T08:24:15.145Z,97769.56
2018-08-09T08:26:44.614Z,97773.33
2018-08-09T08:29:13.657Z,97774.31
2018-08-09T08:31:43.238Z,97785.44
2018-08-09T08:34:12.345Z,97782.44
2018-08-09T08:36:41.521Z,97773.59
2018-08-09T08:39:10.957Z,97775.73
2018-08-09T08:41:40.385Z,97774.74
2018-08-09T08:44:09.473Z,97767.58
2018-08-09T08:46:38.693Z,97755.85
2018-08-09T08:49:07.795Z,97757.05
2018-08-09T08:51:37.785Z,97746.84
2018-08-09T08:54:07.993Z,97751.45
2018-08-09T08:56:37.117Z,97735.55
2018-08-09T08:59:06.658Z,97738.01
2018-08-09T09:01:36.553Z,97742.33
2018-08-09T09:04:06.517Z,97743.17
2018-08-09T09:06:37.088Z,97732.38
2018-08-09T09:09:11.720Z,97727.95
2018-08-09T09:11:41.045Z,97718.65
2018-08-09T09:14:10.377Z,97709.07
2018-08-09T09:16:39.539Z,97710.19
2018-08-09T09:19:10.056Z,97716.85
2018-08-09T09:21:39.137Z,97712.91
2018-08-09T09:24:08.241Z,97723.23
2018-08-09T09:26:37.334Z,97717.06
2018-08-09T09:29:08.053Z,97721.66
2018-08-09T09:31:37.878Z,97713.26
2018-08-09T09:34:07.014Z,97713.62
2018-08-09T09:36:36.157Z,97716.91
2018-08-09T09:39:09.737Z,97712.11
2018-08-09T09:41:39.886Z,97713.88
2018-08-09T09:44:09.421Z,97706.82
2018-08-09T09:46:38.525Z,97708.16
2018-08-09T09:49:08.245Z,97705.24
2018-08-09T09:51:38.134Z,97718.32
2018-08-09T09:54:07.685Z,97712.73
2018-08-09T09:56:37.583Z,97709.22
2018-08-09T09:59:06.957Z,97694.56
2018-08-09T10:01:37.157Z,97698.28
2018-08-09T10:04:07.098Z,97697.05
2018-08-09T10:06:37.625Z,97682.97
2018-08-09T10:09:11.433Z,97681.71
2018-08-09T10:11:42.005Z,97673.47
2018-08-09T10:14:11.418Z,97672.72
2018-08-09T10:16:40.691Z,97662.48
2018-08-09T10:19:10.537Z,97666.56
2018-08-09T10:21:40.648Z,97664.77
2018-08-09T10:24:10.348Z,97663.44
2018-08-09T10:26:40.374Z,97661.46
2018-08-09T10:29:12.259Z,97651.45
2018-08-09T10:31:42.266Z,97652.45
2018-08-09T10:34:11.003Z,97641.81
2018-08-09T10:36:40.124Z,97650.09
2018-08-09T10:39:11.669Z,97645.45
2018-08-09T10:41:45.489Z,97645.66
2018-08-09T10:44:16.134Z,97639.77
2018-08-09T10:46:45.241Z,97645.92
2018-08-09T10:49:18.454Z,97644.28
2018-08-09T10:51:48.386Z,97643.39
2018-08-09T10:54:17.657Z,97635.56
2018-08-09T10:56:46.877Z,97629.30
2018-08-09T10:59:16.022Z,97629.96
2018-08-09T11:01:45.508Z,97622.08
2018-08-09T11:04:14.684Z,97621.49
2018-08-09T11:06:43.785Z,97612.36
2018-08-09T11:09:13.269Z,97609.92
2018-08-09T11:11:42.517Z,97599.35
2018-08-09T11:14:11.789Z,97595.52
2018-08-09T11:16:40.645Z,97593.55
2018-08-09T11:19:09.814Z,97592.53
2018-08-09T11:21:38.890Z,97598.19
2018-08-09T11:24:08.242Z,97603.45
2018-08-09T11:26:37.321Z,97594.63
2018-08-09T11:29:06.629Z,97592.80
2018-08-09T11:31:35.769Z,97585.91
2018-08-09T11:34:05.106Z,97586.92
2018-08-09T11:36:34.442Z,97574.39
2018-08-09T11:39:05.117Z,97576.03
2018-08-09T11:41:34.213Z,97577.70
2018-08-09T11:44:03.346Z,97576.14
2018-08-09T11:46:32.517Z,97568.35
2018-08-09T11:49:01.658Z,97561.30
2018-08-09T11:51:30.732Z,97564.86
2018-08-09T11:53:59.866Z,97557.31
2018-08-09T11:56:29.851Z,97552.84
2018-08-09T11:58:58.850Z,97552.34
2018-08-09T12:01:28.284Z,97538.85
2018-08-09T12:03:57.842Z,97544.63
2018-08-09T12:06:26.971Z,97543.25
2018-08-09T12:08:56.053Z,97543.59
2018-08-09T12:11:25.199Z,97548.40
2018-08-09T12:13:54.350Z,97535.19
2018-08-09T12:16:24.213Z,97539.23
2018-08-09T12:18:53.601Z,97537.13
2018-08-09T12:21:23.150Z,97528.44
2018-08-09T12:23:53.126Z,97519.34
2018-08-09T12:26:21.915Z,97524.87
2018-08-09T12:28:51.194Z,97506.97
2018-08-09T12:31:20.369Z,97529.09
2018-08-09T12:33:50.357Z,97525.79
2018-08-09T12:36:19.514Z,97509.13
2018-08-09T12:38:49.415Z,97512.62
2018-08-09T12:41:20.869Z,97503.60
2018-08-09T12:43:50.586Z,97497.09
2018-08-09T12:46:22.661Z,97486.42
2018-08-09T12:48:51.860Z,97495.64
2018-08-09T12:51:20.995Z,97491.91
2018-08-09T12:53:50.406Z,97486.72
2018-08-09T12:56:20.564Z,97480.23
2018-08-09T12:58:51.133Z,97482.81
2018-08-09T13:01:20.841Z,97487.31
2018-08-09T13:03:49.942Z,97485.56
2018-08-09T13:06:18.718Z,97488.68
2018-08-09T13:08:47.911Z,97494.53
2018-08-09T13:11:20.398Z,97492.36
2018-08-09T13:13:50.854Z,97498.16
2018-08-09T13:16:19.909Z,97493.30
2018-08-09T13:18:50.419Z,97503.06
2018-08-09T13:21:19.517Z,97511.42
2018-08-09T13:23:48.720Z,97511.33
2018-08-09T13:26:20.138Z,97527.87
2018-08-09T13:28:49.825Z,97527.13
2018-08-09T13:31:19.043Z,97514.83
2018-08-09T13:33:48.107Z,97519.98
2018-08-09T13:36:17.253Z,97529.70
2018-08-09T13:38:46.342Z,97530.31
2018-08-09T13:41:15.489Z,97608.33
2018-08-09T13:43:45.205Z,97691.81
2018-08-09T13:46:17.722Z,97718.70
2018-08-09T13:48:48.034Z,97698.13
2018-08-09T13:51:17.184Z,97704.23
2018-08-09T13:53:46.254Z,97733.05
2018-08-09T13:56:15.028Z,97750.14
2018-08-09T13:58:44.130Z,97753.66
2018-08-09T14:01:13.210Z,97775.73
2018-08-09T14:03:42.294Z,97795.21
2018-08-09T14:06:11.422Z,97792.36
2018-08-09T14:08:40.501Z,97793.81
2018-08-09T14:11:12.901Z,97799.88
2018-08-09T14:13:42.078Z,97806.61
2018-08-09T14:16:11.684Z,97821.55
2018-08-09T14:18:41.650Z,97826.89
2018-08-09T14:21:10.801Z,97828.77
2018-08-09T14:23:39.878Z,97843.16
2018-08-09T14:26:08.972Z,97839.56
2018-08-09T14:28:38.113Z,97843.84
2018-08-09T14:31:07.210Z,97847.30
2018-08-09T14:33:36.298Z,97862.39
2018-08-09T14:36:05.429Z,97869.24
2018-08-09T14:38:34.604Z,97866.06
2018-08-09T14:41:03.693Z,97868.58
2018-08-09T14:43:32.859Z,97870.52
2018-08-09T14:46:02.667Z,97877.12
2018-08-09T14:48:32.347Z,97872.19
2018-08-09T14:51:01.497Z,97875.22
2018-08-09T14:53:30.566Z,97871.64
2018-08-09T14:55:59.910Z,97862.54
2018-08-09T14:58:29.046Z,97864.25
2018-08-09T15:00:58.137Z,97864.39
2018-08-09T15:03:27.238Z,97857.77
2018-08-09T15:05:56.336Z,97853.67
2018-08-09T15:08:25.462Z,97856.61
2018-08-09T15:10:54.576Z,97846.44
2018-08-09T15:13:24.498Z,97852.80
2018-08-09T15:15:53.618Z,97849.27
2018-08-09T15:18:22.723Z,97839.16
2018-08-09T15:20:52.410Z,97861.71
2018-08-09T15:23:21.697Z,97864.13
2018-08-09T15:25:53.985Z,97872.14
2018-08-09T15:28:22.646Z,97868.69
2018-08-09T15:30:51.788Z,97864.18
2018-08-09T15:33:20.960Z,97873.58
2018-08-09T15:35:50.105Z,97867.72
2018-08-09T15:38:19.308Z,97875.70
2018-08-09T15:40:48.314Z,97882.56
2018-08-09T15:43:17.421Z,97880.84
2018-08-09T15:45:46.653Z,97884.56
2018-08-09T15:48:15.790Z,97874.80
2018-08-09T15:50:44.925Z,97868.59
2018-08-09T15:53:14.058Z,97878.73
2018-08-09T15:55:43.137Z,97873.87
2018-08-09T15:58:12.306Z,97882.11
2018-08-09T16:00:41.455Z,97876.70
2018-08-09T16:03:10.574Z,97872.72
2018-08-09T16:05:39.693Z,97873.95
2018-08-09T16:08:08.874Z,97863.07
2018-08-09T16:10:37.957Z,97863.84
2018-08-09T16:13:07.098Z,97862.66
2018-08-09T16:15:36.199Z,97871.49
2018-08-09T16:18:05.586Z,97853.63
2018-08-09T16:20:34.350Z,97860.73
2018-08-09T16:23:04.075Z,97865.54
2018-08-09T16:25:33.091Z,97862.76
2018-08-09T16:28:02.220Z,97868.11
2018-08-09T16:30:31.344Z,97871.64
2018-08-09T16:33:00.413Z,97870.44
2018-08-09T16:35:29.533Z,97876.13
2018-08-09T16:37:58.630Z,97872.33
2018-08-09T16:40:27.712Z,97869.77
2018-08-09T16:42:57.210Z,97860.76
2018-08-09T16:45:26.693Z,97864.63
2018-08-09T16:47:56.081Z,97871.29
2018-08-09T16:50:26.030Z,97868.42
2018-08-09T16:52:55.338Z,97869.56
2018-08-09T16:55:25.326Z,97872.83
2018-08-09T16:57:54.618Z,97881.18
2018-08-09T17:00:26.730Z,97879.19
2018-08-09T17:02:55.540Z,97880.25
2018-08-09T17:05:27.020Z,97877.58
2018-08-09T17:07:59.023Z,97879.53
2018-08-09T17:10:28.558Z,97885.26
2018-08-09T17:12:57.377Z,97886.08
2018-08-09T17:15:29.438Z,97887.39
2018-08-09T17:17:59.502Z,97888.33
2018-08-09T17:20:32.103Z,97905.20
2018-08-09T17:23:03.410Z,97918.92
2018-08-09T17:25:32.793Z,97927.32
2018-08-09T17:28:02.093Z,97934.94
2018-08-09T17:30:32.583Z,97953.08
2018-08-09T17:33:01.754Z,97969.30
2018-08-09T17:35:31.029Z,97979.84
2018-08-09T17:38:00.114Z,97986.84
2018-08-09T17:40:31.074Z,97995.69
2018-08-09T17:43:00.985Z,97994.22
2018-08-09T17:45:32.359Z,98022.22
2018-08-09T17:48:02.490Z,98015.78
2018-08-09T17:50:32.410Z,98024.94
2018-08-09T17:53:02.446Z,98035.31
2018-08-09T17:55:33.378Z,98034.46
2018-08-09T17:58:03.473Z,98037.23
2018-08-09T18:00:33.778Z,98030.94
2018-08-09T18:03:03.792Z,98029.52
2018-08-09T18:05:34.598Z,98025.45
2018-08-09T18:08:03.706Z,98028.89
2018-08-09T18:10:35.238Z,98027.09
2018-08-09T18:13:04.933Z,98031.72
2018-08-09T18:15:33.848Z,98031.96
2018-08-09T18:18:03.893Z,98031.97
2018-08-09T18:20:34.867Z,98033.52
2018-08-09T18:23:03.992Z,98021.84
2018-08-09T18:25:33.178Z,98034.53
2018-08-09T18:28:02.274Z,98040.14
2018-08-09T18:30:31.466Z,98049.20
2018-08-09T18:33:02.011Z,98037.27
2018-08-09T18:35:32.104Z,98041.03
2018-08-09T18:38:00.915Z,98036.87
2018-08-09T18:40:30.206Z,98038.61
2018-08-09T18:42:59.575Z,98043.08
2018-08-09T18:45:28.738Z,98059.46
2018-08-09T18:47:57.927Z,98065.14
2018-08-09T18:50:29.531Z,98066.91
2018-08-09T18:53:00.022Z,98080.34
2018-08-09T18:55:58.725Z,98071.50
2018-08-09T18:58:28.217Z,98081.25
2018-08-09T19:00:57.305Z,98092.27
2018-08-09T19:03:28.140Z,98094.42
2018-08-09T19:05:57.274Z,98096.47
2018-08-09T19:08:28.090Z,98094.69
2018-08-09T19:10:57.173Z,98090.05
2018-08-09T19:13:27.719Z,98090.34
2018-08-09T19:15:56.842Z,98090.63
2018-08-09T19:18:26.295Z,98099.05
2018-08-09T19:21:06.290Z,98096.66
2018-08-09T19:23:35.030Z,98107.59
2018-08-09T19:26:04.694Z,98114.36
2018-08-09T19:28:34.437Z,98117.67
2018-08-09T19:31:03.521Z,98119.27
2018-08-09T19:33:34.745Z,98127.88
2018-08-09T19:36:03.845Z,98128.12
2018-08-09T19:38:32.917Z,98132.05
2018-08-09T19:41:02.250Z,98136.20
2018-08-09T19:43:33.125Z,98133.63
2018-08-09T19:46:02.286Z,98139.55
2018-08-09T19:48:33.146Z,98140.06
2018-08-09T19:51:02.518Z,98137.98
2018-08-09T19:53:31.350Z,98144.98
2018-08-09T19:56:00.487Z,98148.63
2018-08-09T19:58:29.601Z,98154.33
2018-08-09T20:00:58.827Z,98154.53
2018-08-09T20:03:28.181Z,98155.10
2018-08-09T20:05:57.423Z,98155.61
2018-08-09T20:08:26.513Z,98159.80
2018-08-09T20:10:55.605Z,98160.00
2018-08-09T20:13:30.106Z,98159.02
2018-08-09T20:15:59.194Z,98162.60
2018-08-09T20:18:28.318Z,98162.04
2018-08-09T20:20:57.697Z,98166.38
2018-08-09T20:23:27.706Z,98170.50
2018-08-09T20:25:57.294Z,98178.16
2018-08-09T20:28:26.575Z,98175.52
2018-08-09T20:30:56.297Z,98175.44
2018-08-09T20:33:25.541Z,98179.28
2018-08-09T20:35:54.655Z,98183.34
2018-08-09T20:38:23.814Z,98186.19
2018-08-09T20:40:52.912Z,98192.37
2018-08-09T20:43:23.646Z,98186.80
2018-08-09T20:45:52.741Z,98185.20
2018-08-09T20:48:22.612Z,98185.41
2018-08-09T20:50:51.991Z,98183.73
2018-08-09T20:53:21.111Z,98187.61
2018-08-09T20:55:50.794Z,98186.11
2018-08-09T20:58:20.686Z,98189.47
2018-08-09T21:00:49.770Z,98187.33
2018-08-09T21:03:18.914Z,98179.47
2018-08-09T21:05:48.742Z,98178.20
2018-08-09T21:08:17.917Z,98183.30
2018-08-09T21:10:47.275Z,98184.64
2018-08-09T21:13:16.934Z,98185.55
2018-08-09T21:15:46.649Z,98177.66
2018-08-09T21:18:15.556Z,98184.98
2018-08-09T21:20:44.715Z,98186.58
2018-08-09T21:23:14.664Z,98190.70
2018-08-09T21:25:44.082Z,98190.20
2018-08-09T21:28:13.415Z,98193.52
2018-08-09T21:30:42.558Z,98193.80
2018-08-09T21:33:11.686Z,98198.11
2018-08-09T21:35:40.814Z,98201.27
2018-08-09T21:38:10.037Z,98203.03
2018-08-09T21:40:39.349Z,98210.78
2018-08-09T21:43:10.198Z,98210.81
2018-08-09T21:45:41.701Z,98216.15
2018-08-09T21:48:10.934Z,98219.23
2018-08-09T21:50:41.238Z,98225.45
2018-08-09T21:53:10.351Z,98222.81
2018-08-09T21:55:39.437Z,98229.65
2018-08-09T21:58:08.897Z,98225.30
2018-08-09T22:00:49.534Z,98240.28
2018-08-09T22:03:21.334Z,98237.07
2018-08-09T22:05:55.799Z,98242.89
2018-08-09T22:08:30.109Z,98253.48
2018-08-09T22:11:04.519Z,98259.01
2018-08-09T22:13:38.821Z,98262.77
2018-08-09T22:16:13.105Z,98263.02
2018-08-09T22:18:47.695Z,98270.72
2018-08-09T22:21:22.193Z,98264.89
2018-08-09T22:23:51.379Z,98272.77
2018-08-09T22:26:20.468Z,98282.88
2018-08-09T22:28:49.573Z,98276.76
2018-08-09T22:31:20.310Z,98277.59
2018-08-09T22:33:49.357Z,98283.68
2018-08-09T22:36:18.550Z,98295.99
2018-08-09T22:38:47.571Z,98307.08
2018-08-09T22:41:16.690Z,98312.38
2018-08-09T22:43:47.434Z,98320.13
2018-08-09T22:46:16.451Z,98320.69
2018-08-09T22:48:45.550Z,98317.70
2018-08-09T22:51:14.647Z,98325.75
2018-08-09T22:53:43.766Z,98324.98
2018-08-09T22:56:12.857Z,98332.18
2018-08-09T22:58:41.938Z,98328.47
2018-08-09T23:01:11.070Z,98337.92
2018-08-09T23:03:41.851Z,98334.86
2018-08-09T23:06:10.919Z,98340.98
2018-08-09T23:08:40.003Z,98346.09
2018-08-09T23:11:09.675Z,98349.17
2018-08-09T23:13:38.758Z,98350.28
2018-08-09T23:16:08.066Z,98356.83
2018-08-09T23:18:37.809Z,98358.33
2018-08-09T23:21:06.893Z,98363.27
2018-08-09T23:23:35.978Z,98361.30
2018-08-09T23:26:05.109Z,98365.38
2018-08-09T23:28:34.436Z,98370.42
2018-08-09T23:31:03.578Z,98366.44
2018-08-09T23:33:32.720Z,98382.54
2018-08-09T23:36:01.902Z,98381.56
2018-08-09T23:38:31.502Z,98381.43
2018-08-09T23:41:00.826Z,98379.91
2018-08-09T23:43:30.429Z,98379.25
2018-08-09T23:45:59.694Z,98398.59
2018-08-09T23:48:28.954Z,98405.48
2018-08-09T23:50:58.178Z,98409.30
2018-08-09T23:53:27.974Z,98415.45
2018-08-09T23:55:57.203Z,98423.56
2018-08-09T23:58:26.361Z,98427.22
